sensor_id;sensor_type;location;lat;lon;timestamp;temperature;humidity
16066;DHT22;8137;48.952;8.970;2023-05-20T00:01:08;9.70;99.90
16066;DHT22;8137;48.952;8.970;2023-05-20T00:03:34;9.70;99.90
16066;DHT22;8137;48.952;8.970;2023-05-20T00:05:59;9.70;99.90
16066;DHT22;8137;48.952;8.970;2023-05-20T00:08:25;9.60;99.90
16066;DHT22;8137;48.952;8.970;2023-05-20T00:10:50;9.60;99.90
16066;DHT22;8137;48.952;8.970;2023-05-20T00:13:16;9.50;99.90
16066;DHT22;8137;48.952;8.970;2023-05-20T00:15:41;9.50;99.90
16066;DHT22;8137;48.952;8.970;2023-05-20T00:18:07;9.50;99.90
16066;DHT22;8137;48.952;8.970;2023-05-20T00:20:33;9.40;99.90
16066;DHT22;8137;48.952;8.970;2023-05-20T00:22:58;9.40;99.90
16066;DHT22;8137;48.952;8.970;2023-05-20T00:25:24;9.40;99.90
16066;DHT22;8137;48.952;8.970;2023-05-20T00:27:50;9.30;99.90
16066;DHT22;8137;48.952;8.970;2023-05-20T00:30:15;9.30;99.90
16066;DHT22;8137;48.952;8.970;2023-05-20T00:32:41;9.30;99.90
16066;DHT22;8137;48.952;8.970;2023-05-20T00:35:07;9.20;99.90
16066;DHT22;8137;48.952;8.970;2023-05-20T00:37:32;9.20;99.90
16066;DHT22;8137;48.952;8.970;2023-05-20T00:39:58;9.10;99.90
16066;DHT22;8137;48.952;8.970;2023-05-20T00:42:25;9.10;99.90
16066;DHT22;8137;48.952;8.970;2023-05-20T00:44:52;9.10;99.90
16066;DHT22;8137;48.952;8.970;2023-05-20T00:47:19;9.10;99.90
16066;DHT22;8137;48.952;8.970;2023-05-20T00:49:46;9.10;99.90
16066;DHT22;8137;48.952;8.970;2023-05-20T00:52:13;9.10;99.90
16066;DHT22;8137;48.952;8.970;2023-05-20T00:54:39;9.20;99.90
16066;DHT22;8137;48.952;8.970;2023-05-20T00:57:06;9.30;99.90
16066;DHT22;8137;48.952;8.970;2023-05-20T00:59:35;9.30;99.90
16066;DHT22;8137;48.952;8.970;2023-05-20T01:02:02;9.30;99.90
16066;DHT22;8137;48.952;8.970;2023-05-20T01:04:29;9.20;99.90
16066;DHT22;8137;48.952;8.970;2023-05-20T01:06:55;9.30;99.90
16066;DHT22;8137;48.952;8.970;2023-05-20T01:09:23;9.30;99.90
16066;DHT22;8137;48.952;8.970;2023-05-20T01:11:58;9.30;99.90
16066;DHT22;8137;48.952;8.970;2023-05-20T01:14:29;9.30;99.90
16066;DHT22;8137;48.952;8.970;2023-05-20T01:16:58;9.40;99.90
16066;DHT22;8137;48.952;8.970;2023-05-20T01:19:37;9.40;99.90
16066;DHT22;8137;48.952;8.970;2023-05-20T01:22:05;9.40;99.90
16066;DHT22;8137;48.952;8.970;2023-05-20T01:24:31;9.50;99.90
16066;DHT22;8137;48.952;8.970;2023-05-20T01:26:57;9.50;99.90
16066;DHT22;8137;48.952;8.970;2023-05-20T01:29:24;9.60;99.90
16066;DHT22;8137;48.952;8.970;2023-05-20T01:31:51;9.60;99.90
16066;DHT22;8137;48.952;8.970;2023-05-20T01:34:18;9.60;99.90
16066;DHT22;8137;48.952;8.970;2023-05-20T01:36:45;9.60;99.90
16066;DHT22;8137;48.952;8.970;2023-05-20T01:39:12;9.70;99.90
16066;DHT22;8137;48.952;8.970;2023-05-20T01:41:38;9.70;99.90
16066;DHT22;8137;48.952;8.970;2023-05-20T01:44:05;9.80;99.90
16066;DHT22;8137;48.952;8.970;2023-05-20T01:46:33;9.80;99.90
16066;DHT22;8137;48.952;8.970;2023-05-20T01:48:59;9.90;99.90
16066;DHT22;8137;48.952;8.970;2023-05-20T01:51:25;9.90;99.90
16066;DHT22;8137;48.952;8.970;2023-05-20T01:53:50;10.00;99.90
16066;DHT22;8137;48.952;8.970;2023-05-20T01:56:16;10.10;99.90
16066;DHT22;8137;48.952;8.970;2023-05-20T01:58:41;10.30;99.90
16066;DHT22;8137;48.952;8.970;2023-05-20T02:01:07;10.50;99.90
16066;DHT22;8137;48.952;8.970;2023-05-20T02:03:33;10.80;99.90
16066;DHT22;8137;48.952;8.970;2023-05-20T02:05:58;11.00;99.90
16066;DHT22;8137;48.952;8.970;2023-05-20T02:08:24;11.30;99.90
16066;DHT22;8137;48.952;8.970;2023-05-20T02:10:49;11.40;99.90
16066;DHT22;8137;48.952;8.970;2023-05-20T02:13:15;11.70;99.90
16066;DHT22;8137;48.952;8.970;2023-05-20T02:15:41;11.90;99.90
16066;DHT22;8137;48.952;8.970;2023-05-20T02:18:07;12.10;99.90
16066;DHT22;8137;48.952;8.970;2023-05-20T02:20:35;12.20;99.90
16066;DHT22;8137;48.952;8.970;2023-05-20T02:23:00;12.30;99.90
16066;DHT22;8137;48.952;8.970;2023-05-20T02:25:27;12.40;99.90
16066;DHT22;8137;48.952;8.970;2023-05-20T02:27:52;12.50;99.90
16066;DHT22;8137;48.952;8.970;2023-05-20T02:30:18;12.50;99.90
16066;DHT22;8137;48.952;8.970;2023-05-20T02:32:44;12.50;99.90
16066;DHT22;8137;48.952;8.970;2023-05-20T02:35:10;12.50;99.90
16066;DHT22;8137;48.952;8.970;2023-05-20T02:37:35;12.50;99.90
16066;DHT22;8137;48.952;8.970;2023-05-20T02:40:03;12.50;99.90
16066;DHT22;8137;48.952;8.970;2023-05-20T02:42:29;12.60;99.90
16066;DHT22;8137;48.952;8.970;2023-05-20T02:44:55;12.50;99.90
16066;DHT22;8137;48.952;8.970;2023-05-20T02:47:23;12.60;99.90
16066;DHT22;8137;48.952;8.970;2023-05-20T02:49:49;12.60;99.90
16066;DHT22;8137;48.952;8.970;2023-05-20T02:52:15;12.70;99.90
16066;DHT22;8137;48.952;8.970;2023-05-20T02:54:40;12.60;99.90
16066;DHT22;8137;48.952;8.970;2023-05-20T02:57:06;12.60;99.90
16066;DHT22;8137;48.952;8.970;2023-05-20T02:59:32;12.70;99.90
16066;DHT22;8137;48.952;8.970;2023-05-20T03:01:57;12.70;99.90
16066;DHT22;8137;48.952;8.970;2023-05-20T03:04:23;12.70;99.90
16066;DHT22;8137;48.952;8.970;2023-05-20T03:06:50;12.80;99.90
16066;DHT22;8137;48.952;8.970;2023-05-20T03:09:16;12.80;99.90
16066;DHT22;8137;48.952;8.970;2023-05-20T03:11:44;12.70;99.90
16066;DHT22;8137;48.952;8.970;2023-05-20T03:14:10;12.80;99.90
16066;DHT22;8137;48.952;8.970;2023-05-20T03:16:35;12.90;99.90
16066;DHT22;8137;48.952;8.970;2023-05-20T03:19:01;12.80;99.90
16066;DHT22;8137;48.952;8.970;2023-05-20T03:21:27;12.70;99.90
16066;DHT22;8137;48.952;8.970;2023-05-20T03:23:53;12.70;99.90
16066;DHT22;8137;48.952;8.970;2023-05-20T03:26:19;12.60;99.90
16066;DHT22;8137;48.952;8.970;2023-05-20T03:28:45;12.60;99.90
16066;DHT22;8137;48.952;8.970;2023-05-20T03:31:11;12.60;99.90
16066;DHT22;8137;48.952;8.970;2023-05-20T03:33:36;12.60;99.90
16066;DHT22;8137;48.952;8.970;2023-05-20T03:36:02;12.60;99.90
16066;DHT22;8137;48.952;8.970;2023-05-20T03:38:27;12.50;99.90
16066;DHT22;8137;48.952;8.970;2023-05-20T03:40:53;12.50;99.90
16066;DHT22;8137;48.952;8.970;2023-05-20T03:43:19;12.50;99.90
16066;DHT22;8137;48.952;8.970;2023-05-20T03:45:44;12.50;99.90
16066;DHT22;8137;48.952;8.970;2023-05-20T03:48:10;12.50;99.90
16066;DHT22;8137;48.952;8.970;2023-05-20T03:50:35;12.50;99.90
16066;DHT22;8137;48.952;8.970;2023-05-20T03:53:01;12.50;99.90
16066;DHT22;8137;48.952;8.970;2023-05-20T03:55:27;12.50;99.90
16066;DHT22;8137;48.952;8.970;2023-05-20T03:57:52;12.50;99.90
16066;DHT22;8137;48.952;8.970;2023-05-20T04:00:18;12.60;99.90
16066;DHT22;8137;48.952;8.970;2023-05-20T04:02:43;12.60;99.90
16066;DHT22;8137;48.952;8.970;2023-05-20T04:05:09;12.60;99.90
16066;DHT22;8137;48.952;8.970;2023-05-20T04:07:36;12.60;99.90
16066;DHT22;8137;48.952;8.970;2023-05-20T04:10:02;12.70;99.90
16066;DHT22;8137;48.952;8.970;2023-05-20T04:12:28;12.70;99.90
16066;DHT22;8137;48.952;8.970;2023-05-20T04:14:58;12.70;99.90
16066;DHT22;8137;48.952;8.970;2023-05-20T04:17:29;12.70;99.90
16066;DHT22;8137;48.952;8.970;2023-05-20T04:19:58;12.70;99.90
16066;DHT22;8137;48.952;8.970;2023-05-20T04:22:24;12.70;99.90
16066;DHT22;8137;48.952;8.970;2023-05-20T04:24:51;12.80;99.90
16066;DHT22;8137;48.952;8.970;2023-05-20T04:27:16;12.70;99.90
16066;DHT22;8137;48.952;8.970;2023-05-20T04:29:42;12.80;99.90
16066;DHT22;8137;48.952;8.970;2023-05-20T04:32:12;12.80;99.90
16066;DHT22;8137;48.952;8.970;2023-05-20T04:34:38;12.70;99.90
16066;DHT22;8137;48.952;8.970;2023-05-20T04:37:04;12.70;99.90
16066;DHT22;8137;48.952;8.970;2023-05-20T04:39:32;12.70;99.90
16066;DHT22;8137;48.952;8.970;2023-05-20T04:41:57;12.70;99.90
16066;DHT22;8137;48.952;8.970;2023-05-20T04:44:24;12.80;99.90
16066;DHT22;8137;48.952;8.970;2023-05-20T04:46:50;12.80;99.90
16066;DHT22;8137;48.952;8.970;2023-05-20T04:49:16;12.80;99.90
16066;DHT22;8137;48.952;8.970;2023-05-20T04:51:42;12.80;99.90
16066;DHT22;8137;48.952;8.970;2023-05-20T04:54:08;12.90;99.90
16066;DHT22;8137;48.952;8.970;2023-05-20T04:56:33;12.90;99.90
16066;DHT22;8137;48.952;8.970;2023-05-20T04:58:59;12.90;99.90
16066;DHT22;8137;48.952;8.970;2023-05-20T05:01:25;12.90;99.90
16066;DHT22;8137;48.952;8.970;2023-05-20T05:03:50;13.00;99.90
16066;DHT22;8137;48.952;8.970;2023-05-20T05:06:16;13.00;99.90
16066;DHT22;8137;48.952;8.970;2023-05-20T05:08:42;13.10;99.90
16066;DHT22;8137;48.952;8.970;2023-05-20T05:11:07;13.20;99.90
16066;DHT22;8137;48.952;8.970;2023-05-20T05:13:33;13.40;99.90
16066;DHT22;8137;48.952;8.970;2023-05-20T05:15:59;13.40;99.90
16066;DHT22;8137;48.952;8.970;2023-05-20T05:18:25;13.60;99.90
16066;DHT22;8137;48.952;8.970;2023-05-20T05:20:58;13.70;99.90
16066;DHT22;8137;48.952;8.970;2023-05-20T05:23:24;13.80;99.90
16066;DHT22;8137;48.952;8.970;2023-05-20T05:25:53;14.00;99.90
16066;DHT22;8137;48.952;8.970;2023-05-20T05:28:19;14.00;99.90
16066;DHT22;8137;48.952;8.970;2023-05-20T05:30:44;14.20;99.90
16066;DHT22;8137;48.952;8.970;2023-05-20T05:33:10;14.40;99.90
16066;DHT22;8137;48.952;8.970;2023-05-20T05:35:36;14.40;99.90
16066;DHT22;8137;48.952;8.970;2023-05-20T05:38:01;14.50;99.90
16066;DHT22;8137;48.952;8.970;2023-05-20T05:40:27;14.60;99.90
16066;DHT22;8137;48.952;8.970;2023-05-20T05:42:53;14.70;99.90
16066;DHT22;8137;48.952;8.970;2023-05-20T05:45:18;14.90;99.90
16066;DHT22;8137;48.952;8.970;2023-05-20T05:47:44;14.90;99.90
16066;DHT22;8137;48.952;8.970;2023-05-20T05:50:10;14.90;99.90
16066;DHT22;8137;48.952;8.970;2023-05-20T05:52:35;14.90;99.90
16066;DHT22;8137;48.952;8.970;2023-05-20T05:55:02;14.90;99.90
16066;DHT22;8137;48.952;8.970;2023-05-20T05:57:27;14.90;99.90
16066;DHT22;8137;48.952;8.970;2023-05-20T05:59:53;15.00;99.90
16066;DHT22;8137;48.952;8.970;2023-05-20T06:02:18;15.20;99.90
16066;DHT22;8137;48.952;8.970;2023-05-20T06:04:44;15.40;99.90
16066;DHT22;8137;48.952;8.970;2023-05-20T06:07:10;15.40;99.90
16066;DHT22;8137;48.952;8.970;2023-05-20T06:09:35;15.40;99.90
16066;DHT22;8137;48.952;8.970;2023-05-20T06:12:01;15.40;99.90
16066;DHT22;8137;48.952;8.970;2023-05-20T06:14:27;15.40;99.90
16066;DHT22;8137;48.952;8.970;2023-05-20T06:16:52;15.40;99.90
16066;DHT22;8137;48.952;8.970;2023-05-20T06:19:18;15.50;99.90
16066;DHT22;8137;48.952;8.970;2023-05-20T06:21:43;15.50;99.90
16066;DHT22;8137;48.952;8.970;2023-05-20T06:24:09;15.60;99.90
16066;DHT22;8137;48.952;8.970;2023-05-20T06:26:35;15.60;99.90
16066;DHT22;8137;48.952;8.970;2023-05-20T06:29:01;15.70;99.90
16066;DHT22;8137;48.952;8.970;2023-05-20T06:31:27;15.80;99.90
16066;DHT22;8137;48.952;8.970;2023-05-20T06:33:54;15.90;99.90
16066;DHT22;8137;48.952;8.970;2023-05-20T06:36:20;15.90;99.90
16066;DHT22;8137;48.952;8.970;2023-05-20T06:38:46;16.00;99.90
16066;DHT22;8137;48.952;8.970;2023-05-20T06:41:11;16.00;99.90
16066;DHT22;8137;48.952;8.970;2023-05-20T06:43:37;16.00;99.90
16066;DHT22;8137;48.952;8.970;2023-05-20T06:46:05;16.00;99.90
16066;DHT22;8137;48.952;8.970;2023-05-20T06:48:30;16.10;99.90
16066;DHT22;8137;48.952;8.970;2023-05-20T06:50:56;16.20;99.90
16066;DHT22;8137;48.952;8.970;2023-05-20T06:53:21;16.20;99.90
16066;DHT22;8137;48.952;8.970;2023-05-20T06:55:47;16.40;99.90
16066;DHT22;8137;48.952;8.970;2023-05-20T06:58:13;16.50;99.90
16066;DHT22;8137;48.952;8.970;2023-05-20T07:00:38;16.50;99.90
16066;DHT22;8137;48.952;8.970;2023-05-20T07:03:04;16.70;99.90
16066;DHT22;8137;48.952;8.970;2023-05-20T07:05:29;16.70;99.90
16066;DHT22;8137;48.952;8.970;2023-05-20T07:07:55;16.80;99.90
16066;DHT22;8137;48.952;8.970;2023-05-20T07:10:21;16.80;99.90
16066;DHT22;8137;48.952;8.970;2023-05-20T07:12:47;16.90;99.90
16066;DHT22;8137;48.952;8.970;2023-05-20T07:15:13;17.00;99.90
16066;DHT22;8137;48.952;8.970;2023-05-20T07:17:38;17.10;99.90
16066;DHT22;8137;48.952;8.970;2023-05-20T07:20:04;17.10;99.90
16066;DHT22;8137;48.952;8.970;2023-05-20T07:22:30;17.30;99.90
16066;DHT22;8137;48.952;8.970;2023-05-20T07:24:56;17.40;99.90
16066;DHT22;8137;48.952;8.970;2023-05-20T07:27:22;17.50;99.90
16066;DHT22;8137;48.952;8.970;2023-05-20T07:29:47;17.60;99.90
16066;DHT22;8137;48.952;8.970;2023-05-20T07:32:13;17.80;99.90
16066;DHT22;8137;48.952;8.970;2023-05-20T07:34:38;18.00;99.90
16066;DHT22;8137;48.952;8.970;2023-05-20T07:37:04;18.20;99.90
16066;DHT22;8137;48.952;8.970;2023-05-20T07:39:30;18.20;99.90
16066;DHT22;8137;48.952;8.970;2023-05-20T07:41:56;18.20;99.90
16066;DHT22;8137;48.952;8.970;2023-05-20T07:44:21;18.20;99.90
16066;DHT22;8137;48.952;8.970;2023-05-20T07:46:47;18.40;99.90
16066;DHT22;8137;48.952;8.970;2023-05-20T07:49:13;18.50;99.90
16066;DHT22;8137;48.952;8.970;2023-05-20T07:51:38;18.60;99.90
16066;DHT22;8137;48.952;8.970;2023-05-20T07:54:04;18.60;99.90
16066;DHT22;8137;48.952;8.970;2023-05-20T07:56:30;18.60;99.90
16066;DHT22;8137;48.952;8.970;2023-05-20T07:58:57;18.70;99.90
16066;DHT22;8137;48.952;8.970;2023-05-20T08:01:24;19.20;99.90
16066;DHT22;8137;48.952;8.970;2023-05-20T08:03:50;19.40;99.90
16066;DHT22;8137;48.952;8.970;2023-05-20T08:06:16;19.40;99.90
16066;DHT22;8137;48.952;8.970;2023-05-20T08:08:42;19.50;99.90
16066;DHT22;8137;48.952;8.970;2023-05-20T08:11:08;19.40;99.90
16066;DHT22;8137;48.952;8.970;2023-05-20T08:13:34;19.10;99.90
16066;DHT22;8137;48.952;8.970;2023-05-20T08:16:00;19.00;99.90
16066;DHT22;8137;48.952;8.970;2023-05-20T08:18:25;19.20;99.90
16066;DHT22;8137;48.952;8.970;2023-05-20T08:20:52;19.40;99.90
16066;DHT22;8137;48.952;8.970;2023-05-20T08:23:17;19.30;99.90
16066;DHT22;8137;48.952;8.970;2023-05-20T08:25:43;19.00;99.90
16066;DHT22;8137;48.952;8.970;2023-05-20T08:28:11;18.90;99.90
16066;DHT22;8137;48.952;8.970;2023-05-20T08:30:36;18.70;99.90
16066;DHT22;8137;48.952;8.970;2023-05-20T08:33:02;18.80;99.90
16066;DHT22;8137;48.952;8.970;2023-05-20T08:35:28;18.90;99.90
16066;DHT22;8137;48.952;8.970;2023-05-20T08:37:53;18.90;99.90
16066;DHT22;8137;48.952;8.970;2023-05-20T08:40:20;18.80;99.90
16066;DHT22;8137;48.952;8.970;2023-05-20T08:42:48;18.60;99.90
16066;DHT22;8137;48.952;8.970;2023-05-20T08:45:18;19.00;99.90
16066;DHT22;8137;48.952;8.970;2023-05-20T08:47:45;19.60;99.90
16066;DHT22;8137;48.952;8.970;2023-05-20T08:50:12;19.90;99.90
16066;DHT22;8137;48.952;8.970;2023-05-20T08:52:43;20.00;99.90
16066;DHT22;8137;48.952;8.970;2023-05-20T08:55:27;20.00;99.90
16066;DHT22;8137;48.952;8.970;2023-05-20T08:57:55;20.20;99.90
16066;DHT22;8137;48.952;8.970;2023-05-20T09:00:22;20.30;99.90
16066;DHT22;8137;48.952;8.970;2023-05-20T09:02:51;20.20;99.90
16066;DHT22;8137;48.952;8.970;2023-05-20T09:05:18;19.80;99.90
16066;DHT22;8137;48.952;8.970;2023-05-20T09:07:44;19.90;99.90
16066;DHT22;8137;48.952;8.970;2023-05-20T09:10:09;19.70;99.90
16066;DHT22;8137;48.952;8.970;2023-05-20T09:12:36;19.90;99.90
16066;DHT22;8137;48.952;8.970;2023-05-20T09:15:03;20.10;99.90
16066;DHT22;8137;48.952;8.970;2023-05-20T09:17:29;20.40;99.90
16066;DHT22;8137;48.952;8.970;2023-05-20T09:19:55;20.70;99.90
16066;DHT22;8137;48.952;8.970;2023-05-20T09:22:25;20.90;99.90
16066;DHT22;8137;48.952;8.970;2023-05-20T09:24:52;20.90;99.90
16066;DHT22;8137;48.952;8.970;2023-05-20T09:27:18;21.20;99.90
16066;DHT22;8137;48.952;8.970;2023-05-20T09:29:49;21.00;99.90
16066;DHT22;8137;48.952;8.970;2023-05-20T09:32:15;20.90;99.90
16066;DHT22;8137;48.952;8.970;2023-05-20T09:34:41;20.80;99.90
16066;DHT22;8137;48.952;8.970;2023-05-20T09:37:08;20.90;99.90
16066;DHT22;8137;48.952;8.970;2023-05-20T09:39:45;21.00;99.90
16066;DHT22;8137;48.952;8.970;2023-05-20T09:42:24;21.30;99.90
16066;DHT22;8137;48.952;8.970;2023-05-20T09:44:52;21.30;99.90
16066;DHT22;8137;48.952;8.970;2023-05-20T09:47:18;21.50;99.90
16066;DHT22;8137;48.952;8.970;2023-05-20T09:49:45;21.40;99.90
16066;DHT22;8137;48.952;8.970;2023-05-20T09:52:14;21.70;99.90
16066;DHT22;8137;48.952;8.970;2023-05-20T09:54:42;21.40;99.90
16066;DHT22;8137;48.952;8.970;2023-05-20T09:57:08;21.30;99.90
16066;DHT22;8137;48.952;8.970;2023-05-20T09:59:36;21.30;99.90
16066;DHT22;8137;48.952;8.970;2023-05-20T10:02:04;21.60;99.90
16066;DHT22;8137;48.952;8.970;2023-05-20T10:04:32;21.80;99.90
16066;DHT22;8137;48.952;8.970;2023-05-20T10:07:29;21.60;99.90
16066;DHT22;8137;48.952;8.970;2023-05-20T10:15:38;21.90;99.90
16066;DHT22;8137;48.952;8.970;2023-05-20T10:18:20;22.30;99.90
16066;DHT22;8137;48.952;8.970;2023-05-20T10:20:49;22.70;99.90
16066;DHT22;8137;48.952;8.970;2023-05-20T10:23:28;23.00;99.90
16066;DHT22;8137;48.952;8.970;2023-05-20T10:25:55;23.10;99.90
16066;DHT22;8137;48.952;8.970;2023-05-20T10:28:30;23.30;99.90
16066;DHT22;8137;48.952;8.970;2023-05-20T10:30:57;23.40;99.90
16066;DHT22;8137;48.952;8.970;2023-05-20T10:33:27;23.10;99.90
16066;DHT22;8137;48.952;8.970;2023-05-20T10:35:57;23.20;99.90
16066;DHT22;8137;48.952;8.970;2023-05-20T10:38:23;23.50;99.90
16066;DHT22;8137;48.952;8.970;2023-05-20T10:40:49;23.60;99.90
16066;DHT22;8137;48.952;8.970;2023-05-20T10:43:16;23.30;99.90
16066;DHT22;8137;48.952;8.970;2023-05-20T10:45:54;23.60;99.90
16066;DHT22;8137;48.952;8.970;2023-05-20T10:48:24;24.00;99.90
16066;DHT22;8137;48.952;8.970;2023-05-20T10:50:53;23.60;99.90
16066;DHT22;8137;48.952;8.970;2023-05-20T10:53:22;23.40;99.90
16066;DHT22;8137;48.952;8.970;2023-05-20T10:55:49;23.10;99.90
16066;DHT22;8137;48.952;8.970;2023-05-20T10:58:23;23.00;99.90
16066;DHT22;8137;48.952;8.970;2023-05-20T11:00:52;22.40;99.90
16066;DHT22;8137;48.952;8.970;2023-05-20T11:03:20;22.20;99.90
16066;DHT22;8137;48.952;8.970;2023-05-20T11:05:46;22.00;99.90
16066;DHT22;8137;48.952;8.970;2023-05-20T11:08:12;22.30;99.90
16066;DHT22;8137;48.952;8.970;2023-05-20T11:10:38;22.70;99.90
16066;DHT22;8137;48.952;8.970;2023-05-20T11:13:04;23.00;99.90
16066;DHT22;8137;48.952;8.970;2023-05-20T11:15:34;23.30;99.90
16066;DHT22;8137;48.952;8.970;2023-05-20T11:18:02;23.50;99.90
16066;DHT22;8137;48.952;8.970;2023-05-20T11:20:28;23.80;99.90
16066;DHT22;8137;48.952;8.970;2023-05-20T11:22:54;24.20;99.90
16066;DHT22;8137;48.952;8.970;2023-05-20T11:25:21;24.60;99.90
16066;DHT22;8137;48.952;8.970;2023-05-20T11:27:48;25.00;99.90
16066;DHT22;8137;48.952;8.970;2023-05-20T11:30:15;24.90;99.90
16066;DHT22;8137;48.952;8.970;2023-05-20T11:32:43;24.70;99.90
16066;DHT22;8137;48.952;8.970;2023-05-20T11:35:22;24.40;99.90
16066;DHT22;8137;48.952;8.970;2023-05-20T11:38:04;24.20;99.90
16066;DHT22;8137;48.952;8.970;2023-05-20T11:40:31;24.30;99.90
16066;DHT22;8137;48.952;8.970;2023-05-20T11:42:59;24.40;99.90
16066;DHT22;8137;48.952;8.970;2023-05-20T11:45:25;24.80;99.90
16066;DHT22;8137;48.952;8.970;2023-05-20T11:48:05;24.70;99.90
16066;DHT22;8137;48.952;8.970;2023-05-20T11:50:35;24.70;99.90
16066;DHT22;8137;48.952;8.970;2023-05-20T11:53:04;24.80;99.90
16066;DHT22;8137;48.952;8.970;2023-05-20T11:55:31;24.80;99.50
16066;DHT22;8137;48.952;8.970;2023-05-20T11:57:58;24.40;99.90
16066;DHT22;8137;48.952;8.970;2023-05-20T12:00:24;24.30;99.80
16066;DHT22;8137;48.952;8.970;2023-05-20T12:02:50;24.60;99.90
16066;DHT22;8137;48.952;8.970;2023-05-20T12:05:15;24.60;99.30
16066;DHT22;8137;48.952;8.970;2023-05-20T12:07:42;24.80;99.90
16066;DHT22;8137;48.952;8.970;2023-05-20T12:10:08;25.50;99.10
16066;DHT22;8137;48.952;8.970;2023-05-20T12:12:34;25.30;94.60
16066;DHT22;8137;48.952;8.970;2023-05-20T12:15:02;24.60;93.20
16066;DHT22;8137;48.952;8.970;2023-05-20T12:17:28;24.40;96.20
16066;DHT22;8137;48.952;8.970;2023-05-20T12:19:53;23.90;94.50
16066;DHT22;8137;48.952;8.970;2023-05-20T12:22:19;23.70;95.90
16066;DHT22;8137;48.952;8.970;2023-05-20T12:24:44;23.50;95.90
16066;DHT22;8137;48.952;8.970;2023-05-20T12:27:10;23.50;97.30
16066;DHT22;8137;48.952;8.970;2023-05-20T12:29:37;23.70;98.20
16066;DHT22;8137;48.952;8.970;2023-05-20T12:32:02;24.00;99.10
16066;DHT22;8137;48.952;8.970;2023-05-20T12:34:28;24.10;98.30
16066;DHT22;8137;48.952;8.970;2023-05-20T12:36:54;24.20;98.40
16066;DHT22;8137;48.952;8.970;2023-05-20T12:39:20;24.10;97.50
16066;DHT22;8137;48.952;8.970;2023-05-20T12:41:46;24.00;93.80
16066;DHT22;8137;48.952;8.970;2023-05-20T12:44:11;23.60;93.70
16066;DHT22;8137;48.952;8.970;2023-05-20T12:46:37;23.40;93.70
16066;DHT22;8137;48.952;8.970;2023-05-20T12:49:03;23.10;94.70
16066;DHT22;8137;48.952;8.970;2023-05-20T12:51:28;23.20;97.10
16066;DHT22;8137;48.952;8.970;2023-05-20T12:53:54;23.50;98.50
16066;DHT22;8137;48.952;8.970;2023-05-20T12:56:19;23.80;98.40
16066;DHT22;8137;48.952;8.970;2023-05-20T12:58:46;24.20;94.50
16066;DHT22;8137;48.952;8.970;2023-05-20T13:01:12;24.60;94.10
16066;DHT22;8137;48.952;8.970;2023-05-20T13:03:37;24.70;91.60
16066;DHT22;8137;48.952;8.970;2023-05-20T13:06:03;24.40;90.50
16066;DHT22;8137;48.952;8.970;2023-05-20T13:08:29;24.50;92.80
16066;DHT22;8137;48.952;8.970;2023-05-20T13:10:54;24.40;89.10
16066;DHT22;8137;48.952;8.970;2023-05-20T13:13:20;24.60;91.80
16066;DHT22;8137;48.952;8.970;2023-05-20T13:15:49;24.90;88.70
16066;DHT22;8137;48.952;8.970;2023-05-20T13:18:15;25.00;90.30
16066;DHT22;8137;48.952;8.970;2023-05-20T13:20:44;24.60;84.90
16066;DHT22;8137;48.952;8.970;2023-05-20T13:23:10;24.40;84.60
16066;DHT22;8137;48.952;8.970;2023-05-20T13:25:35;24.60;90.40
16066;DHT22;8137;48.952;8.970;2023-05-20T13:28:02;24.90;89.00
16066;DHT22;8137;48.952;8.970;2023-05-20T13:30:28;25.10;92.90
16066;DHT22;8137;48.952;8.970;2023-05-20T13:32:53;25.30;90.60
16066;DHT22;8137;48.952;8.970;2023-05-20T13:35:20;25.50;86.80
16066;DHT22;8137;48.952;8.970;2023-05-20T13:37:45;25.30;87.80
16066;DHT22;8137;48.952;8.970;2023-05-20T13:40:11;25.10;80.00
16066;DHT22;8137;48.952;8.970;2023-05-20T13:42:37;25.00;82.80
16066;DHT22;8137;48.952;8.970;2023-05-20T13:45:03;24.80;82.60
16066;DHT22;8137;48.952;8.970;2023-05-20T13:47:29;24.90;85.00
16066;DHT22;8137;48.952;8.970;2023-05-20T13:49:54;24.70;83.20
16066;DHT22;8137;48.952;8.970;2023-05-20T13:52:20;24.60;79.30
16066;DHT22;8137;48.952;8.970;2023-05-20T13:54:45;24.30;78.20
16066;DHT22;8137;48.952;8.970;2023-05-20T13:57:13;24.00;81.00
16066;DHT22;8137;48.952;8.970;2023-05-20T13:59:40;23.90;84.90
16066;DHT22;8137;48.952;8.970;2023-05-20T14:02:06;24.00;85.80
16066;DHT22;8137;48.952;8.970;2023-05-20T14:04:32;24.20;85.50
16066;DHT22;8137;48.952;8.970;2023-05-20T14:07:04;24.70;85.30
16066;DHT22;8137;48.952;8.970;2023-05-20T14:09:30;25.10;86.20
16066;DHT22;8137;48.952;8.970;2023-05-20T14:11:55;25.50;79.30
16066;DHT22;8137;48.952;8.970;2023-05-20T14:14:21;25.40;81.80
16066;DHT22;8137;48.952;8.970;2023-05-20T14:16:47;25.30;79.00
16066;DHT22;8137;48.952;8.970;2023-05-20T14:19:12;25.50;79.80
16066;DHT22;8137;48.952;8.970;2023-05-20T14:21:38;25.70;78.40
16066;DHT22;8137;48.952;8.970;2023-05-20T14:24:04;25.90;71.90
16066;DHT22;8137;48.952;8.970;2023-05-20T14:26:30;25.90;72.10
16066;DHT22;8137;48.952;8.970;2023-05-20T14:28:55;25.80;71.00
16066;DHT22;8137;48.952;8.970;2023-05-20T14:31:21;25.80;74.90
16066;DHT22;8137;48.952;8.970;2023-05-20T14:33:46;25.90;76.90
16066;DHT22;8137;48.952;8.970;2023-05-20T14:36:12;26.00;72.40
16066;DHT22;8137;48.952;8.970;2023-05-20T14:38:38;25.80;70.30
16066;DHT22;8137;48.952;8.970;2023-05-20T14:41:03;25.80;75.60
16066;DHT22;8137;48.952;8.970;2023-05-20T14:43:29;25.50;72.80
16066;DHT22;8137;48.952;8.970;2023-05-20T14:45:56;25.40;73.50
16066;DHT22;8137;48.952;8.970;2023-05-20T14:48:22;25.40;75.70
16066;DHT22;8137;48.952;8.970;2023-05-20T14:50:47;25.30;80.60
16066;DHT22;8137;48.952;8.970;2023-05-20T14:53:13;25.10;75.80
16066;DHT22;8137;48.952;8.970;2023-05-20T14:55:39;24.80;84.40
16066;DHT22;8137;48.952;8.970;2023-05-20T14:58:05;25.00;84.90
16066;DHT22;8137;48.952;8.970;2023-05-20T15:00:30;25.10;84.60
16066;DHT22;8137;48.952;8.970;2023-05-20T15:02:57;25.00;77.80
16066;DHT22;8137;48.952;8.970;2023-05-20T15:05:22;24.60;77.50
16066;DHT22;8137;48.952;8.970;2023-05-20T15:07:49;24.50;80.50
16066;DHT22;8137;48.952;8.970;2023-05-20T15:10:15;24.40;79.00
16066;DHT22;8137;48.952;8.970;2023-05-20T15:12:41;24.60;78.70
16066;DHT22;8137;48.952;8.970;2023-05-20T15:15:08;24.90;79.90
16066;DHT22;8137;48.952;8.970;2023-05-20T15:17:34;24.80;77.70
16066;DHT22;8137;48.952;8.970;2023-05-20T15:20:00;24.50;77.40
16066;DHT22;8137;48.952;8.970;2023-05-20T15:22:25;24.40;81.30
16066;DHT22;8137;48.952;8.970;2023-05-20T15:24:51;24.40;82.70
16066;DHT22;8137;48.952;8.970;2023-05-20T15:27:17;24.50;85.80
16066;DHT22;8137;48.952;8.970;2023-05-20T15:29:42;24.60;83.90
16066;DHT22;8137;48.952;8.970;2023-05-20T15:32:08;24.70;84.80
16066;DHT22;8137;48.952;8.970;2023-05-20T15:34:33;24.70;83.40
16066;DHT22;8137;48.952;8.970;2023-05-20T15:36:59;24.90;89.70
16066;DHT22;8137;48.952;8.970;2023-05-20T15:39:25;24.90;83.10
16066;DHT22;8137;48.952;8.970;2023-05-20T15:41:50;24.80;83.70
16066;DHT22;8137;48.952;8.970;2023-05-20T15:44:18;24.70;86.90
16066;DHT22;8137;48.952;8.970;2023-05-20T15:46:44;24.80;87.10
16066;DHT22;8137;48.952;8.970;2023-05-20T15:49:11;24.70;87.00